Time;durP1;ratioP1;P1;durP2;ratioP2;P2;SDS_P1;SDS_P2;PMS_P1;PMS_P2;Temp;Humidity;BMP_temperature;BMP_pressure;BME280_temperature;BME280_humidity;BME280_pressure;Samples;Min_cycle;Max_cycle;Signal;HPM_P1;HPM_P2
2021/10/26 00:01:08;;;;;;;10.52;7.10;;;12.70;99.90;;;;;;4151770;28;20029;-71
2021/10/26 00:03:09;;;;;;;10.02;6.15;;;12.80;99.90;;;;;;4151873;28;20041;-72
2021/10/26 00:05:10;;;;;;;9.65;6.32;;;12.80;99.90;;;;;;4147322;28;20053;-72
2021/10/26 00:07:10;;;;;;;9.18;6.45;;;12.80;99.90;;;;;;4150036;28;20041;-72
2021/10/26 00:09:11;;;;;;;8.82;6.13;;;12.80;99.90;;;;;;4148152;28;20088;-72
2021/10/26 00:11:11;;;;;;;11.23;6.35;;;12.80;99.90;;;;;;4149578;28;20053;-72
2021/10/26 00:13:12;;;;;;;8.95;6.05;;;12.80;99.90;;;;;;4147786;28;20723;-72
2021/10/26 00:15:15;;;;;;;9.82;6.78;;;12.80;99.90;;;;;;4152591;28;20120;-72
2021/10/26 00:17:16;;;;;;;9.90;6.32;;;12.70;99.90;;;;;;4154862;28;20112;-72
2021/10/26 00:19:18;;;;;;;8.50;6.22;;;12.80;99.90;;;;;;4152154;28;20080;-72
2021/10/26 00:21:19;;;;;;;12.65;6.30;;;12.80;99.90;;;;;;4151667;28;20053;-72
2021/10/26 00:23:20;;;;;;;8.25;5.78;;;12.80;99.90;;;;;;4155588;28;20041;-72
2021/10/26 00:25:21;;;;;;;10.25;6.75;;;12.80;99.90;;;;;;4157246;28;20500;-72
2021/10/26 00:27:22;;;;;;;8.90;6.40;;;12.80;99.90;;;;;;4156022;28;20060;-72
2021/10/26 00:29:23;;;;;;;10.75;6.63;;;12.80;99.90;;;;;;4152554;28;20029;-72
2021/10/26 00:31:24;;;;;;;10.05;6.88;;;12.90;99.90;;;;;;4145705;28;20625;-72
2021/10/26 00:33:25;;;;;;;8.40;6.25;;;12.90;99.90;;;;;;4147869;28;20044;-72
2021/10/26 00:35:28;;;;;;;10.55;6.10;;;12.90;99.90;;;;;;4151218;28;20061;-72
2021/10/26 00:37:29;;;;;;;8.38;6.38;;;12.90;99.90;;;;;;4152466;28;20034;-72
2021/10/26 00:39:29;;;;;;;10.23;6.47;;;12.90;99.90;;;;;;4152463;28;20041;-72
2021/10/26 00:41:30;;;;;;;8.70;5.93;;;12.90;99.90;;;;;;4153453;28;20536;-72
2021/10/26 00:43:31;;;;;;;8.02;5.93;;;12.90;99.90;;;;;;4151549;28;20477;-72
2021/10/26 00:45:31;;;;;;;10.20;6.28;;;12.90;99.90;;;;;;4152595;28;20026;-72
2021/10/26 00:47:32;;;;;;;10.77;6.85;;;12.90;99.90;;;;;;4154922;28;20030;-72
2021/10/26 00:49:32;;;;;;;10.50;6.65;;;12.90;99.90;;;;;;4151592;28;20033;-72
2021/10/26 00:51:33;;;;;;;9.90;6.60;;;12.90;99.90;;;;;;4149935;28;20041;-72
2021/10/26 00:53:34;;;;;;;9.82;6.32;;;12.90;99.90;;;;;;4154640;28;20146;-72
2021/10/26 00:55:34;;;;;;;8.80;6.10;;;12.90;99.90;;;;;;4153568;28;20034;-71
2021/10/26 00:57:35;;;;;;;9.45;6.20;;;12.90;99.90;;;;;;4150236;28;20534;-72
2021/10/26 00:59:36;;;;;;;8.45;5.45;;;13.00;99.90;;;;;;4155304;28;20065;-72
2021/10/26 01:01:37;;;;;;;8.95;6.32;;;13.00;99.90;;;;;;4149057;28;20040;-72
2021/10/26 01:03:37;;;;;;;10.15;6.88;;;13.00;99.90;;;;;;4151871;28;20046;-72
2021/10/26 01:05:38;;;;;;;7.40;5.68;;;13.00;99.90;;;;;;4152994;28;20129;-72
2021/10/26 01:07:39;;;;;;;8.02;5.78;;;13.00;99.90;;;;;;4151642;28;20040;-72
2021/10/26 01:09:40;;;;;;;8.30;6.32;;;13.00;99.90;;;;;;4155256;28;20037;-72
2021/10/26 01:11:42;;;;;;;8.85;6.43;;;13.00;99.90;;;;;;4152343;28;20155;-72
2021/10/26 01:13:44;;;;;;;8.20;5.67;;;13.00;99.90;;;;;;4149563;28;20041;-72
2021/10/26 01:15:45;;;;;;;9.98;6.75;;;13.00;99.90;;;;;;4157044;28;20256;-72
2021/10/26 01:17:47;;;;;;;10.07;6.72;;;13.00;99.90;;;;;;4150138;28;20046;-72
2021/10/26 01:19:49;;;;;;;9.85;6.57;;;13.00;99.90;;;;;;4149253;28;20555;-72
2021/10/26 01:21:50;;;;;;;12.38;7.15;;;13.00;99.90;;;;;;4148562;28;20031;-71
2021/10/26 01:23:51;;;;;;;11.13;6.13;;;13.00;99.90;;;;;;4152608;28;20029;-72
2021/10/26 01:25:52;;;;;;;9.52;6.18;;;13.00;99.90;;;;;;4155383;28;20038;-72
2021/10/26 01:27:53;;;;;;;11.20;6.60;;;13.00;99.90;;;;;;4158266;28;20493;-72
2021/10/26 01:29:54;;;;;;;10.20;6.80;;;13.00;99.90;;;;;;4154614;28;20037;-72
2021/10/26 01:31:54;;;;;;;12.57;6.88;;;12.90;99.90;;;;;;4148710;28;20053;-72
2021/10/26 01:33:55;;;;;;;9.55;6.45;;;12.90;99.90;;;;;;4150749;28;20033;-72
2021/10/26 01:35:56;;;;;;;9.45;6.38;;;12.90;99.90;;;;;;4151044;28;20045;-72
2021/10/26 01:37:57;;;;;;;8.90;6.22;;;12.90;99.90;;;;;;4151430;28;20034;-72
2021/10/26 01:39:58;;;;;;;9.63;6.32;;;12.90;99.90;;;;;;4152115;28;20041;-72
2021/10/26 01:42:00;;;;;;;9.20;6.57;;;12.80;99.90;;;;;;4149191;28;20116;-72
2021/10/26 01:44:02;;;;;;;12.77;6.88;;;12.90;99.90;;;;;;4156799;28;20096;-72
2021/10/26 01:46:03;;;;;;;9.47;6.47;;;12.90;99.90;;;;;;4155326;28;20569;-72
2021/10/26 01:48:04;;;;;;;12.73;7.75;;;12.80;99.90;;;;;;4151415;28;20029;-72
2021/10/26 01:50:08;;;;;;;13.05;7.32;;;12.90;99.90;;;;;;4150945;28;20041;-72
2021/10/26 01:52:09;;;;;;;10.57;7.30;;;12.80;99.90;;;;;;4155173;28;20081;-72
2021/10/26 01:54:10;;;;;;;10.82;6.75;;;12.80;99.90;;;;;;4151732;28;20037;-72
2021/10/26 01:56:12;;;;;;;14.45;7.72;;;12.80;99.90;;;;;;4150854;28;20068;-72
2021/10/26 01:58:14;;;;;;;12.35;7.55;;;12.80;99.90;;;;;;4150722;28;20478;-72
2021/10/26 02:00:18;;;;;;;;;;;12.80;99.90;;;;;;4153010;28;20048;-72
2021/10/26 02:02:18;;;;;;;;;;;12.80;99.90;;;;;;4149356;28;19972;-72
2021/10/26 02:04:19;;;;;;;14.23;7.88;;;12.70;99.90;;;;;;4152476;28;19917;-72
2021/10/26 02:06:20;;;;;;;10.75;7.65;;;12.70;99.90;;;;;;4153098;28;20029;-72
2021/10/26 02:08:20;;;;;;;8.88;6.70;;;12.70;99.90;;;;;;4150245;28;20032;-72
2021/10/26 02:10:21;;;;;;;14.18;7.82;;;12.70;99.90;;;;;;4154323;28;20493;-72
2021/10/26 02:12:22;;;;;;;12.80;7.45;;;12.70;99.90;;;;;;4148895;28;20037;-72
2021/10/26 02:14:23;;;;;;;11.52;7.50;;;12.70;99.90;;;;;;4154337;28;20032;-72
2021/10/26 02:16:24;;;;;;;13.55;7.43;;;12.70;99.90;;;;;;4156740;28;20085;-72
2021/10/26 02:18:24;;;;;;;15.48;7.60;;;12.70;99.90;;;;;;4148168;28;20029;-72
2021/10/26 02:20:26;;;;;;;10.63;6.60;;;12.80;99.90;;;;;;4151986;28;20038;-72
2021/10/26 02:22:26;;;;;;;13.88;7.78;;;12.80;99.90;;;;;;4152376;28;20117;-72
2021/10/26 02:24:27;;;;;;;13.73;7.45;;;12.70;99.90;;;;;;4150009;28;20614;-72
2021/10/26 02:26:28;;;;;;;13.80;7.38;;;12.70;99.90;;;;;;4155375;28;20397;-72
2021/10/26 02:28:29;;;;;;;12.07;7.40;;;12.80;99.90;;;;;;4154615;28;20049;-72
2021/10/26 02:30:29;;;;;;;12.77;7.85;;;12.80;99.90;;;;;;4150294;28;20036;-72
2021/10/26 02:32:30;;;;;;;10.77;7.03;;;12.80;99.90;;;;;;4153178;28;20037;-72
2021/10/26 02:34:31;;;;;;;11.30;7.22;;;12.80;99.90;;;;;;4151997;28;20041;-72
2021/10/26 02:36:33;;;;;;;11.27;7.35;;;12.80;99.90;;;;;;4151909;28;20310;-72
2021/10/26 02:38:34;;;;;;;21.53;7.87;;;12.80;99.90;;;;;;4153552;28;20033;-72
2021/10/26 02:40:35;;;;;;;11.40;7.47;;;12.80;99.90;;;;;;4155088;28;20466;-72
2021/10/26 02:42:35;;;;;;;11.20;7.00;;;12.80;99.90;;;;;;4147892;28;20056;-72
2021/10/26 02:44:36;;;;;;;13.68;7.80;;;12.80;99.90;;;;;;4152373;28;20112;-72
2021/10/26 02:46:37;;;;;;;12.18;7.38;;;12.80;99.90;;;;;;4151245;28;20038;-72
2021/10/26 02:48:37;;;;;;;11.98;8.23;;;12.80;99.90;;;;;;4151237;28;20037;-72
2021/10/26 02:50:38;;;;;;;14.07;7.32;;;12.80;99.90;;;;;;4153828;28;20049;-72
2021/10/26 02:52:39;;;;;;;14.68;8.18;;;12.80;99.90;;;;;;4160527;28;20037;-72
2021/10/26 02:54:40;;;;;;;10.63;7.43;;;12.80;99.90;;;;;;4155997;28;20570;-72
2021/10/26 02:56:43;;;;;;;11.93;7.35;;;12.80;99.90;;;;;;4150770;28;20038;-72
2021/10/26 02:58:44;;;;;;;11.07;6.97;;;12.80;99.90;;;;;;4155515;28;20060;-72
2021/10/26 03:00:45;;;;;;;11.57;7.65;;;12.70;99.90;;;;;;4150668;28;20512;-72
2021/10/26 03:02:46;;;;;;;15.25;8.10;;;12.80;99.90;;;;;;4151090;28;20040;-72
2021/10/26 03:04:48;;;;;;;11.27;7.40;;;12.80;99.90;;;;;;4152601;28;20037;-72
2021/10/26 03:06:48;;;;;;;13.23;7.50;;;12.80;99.90;;;;;;4156916;28;20604;-72
2021/10/26 03:08:49;;;;;;;11.85;7.70;;;12.80;99.90;;;;;;4150628;28;20034;-72
2021/10/26 03:10:50;;;;;;;10.40;7.05;;;12.80;99.90;;;;;;4153149;28;20053;-72
2021/10/26 03:12:50;;;;;;;10.07;7.00;;;12.80;99.90;;;;;;4153167;28;20049;-72
2021/10/26 03:14:51;;;;;;;12.23;7.65;;;12.80;99.90;;;;;;4154512;28;20563;-72
2021/10/26 03:16:51;;;;;;;13.32;7.97;;;12.80;99.90;;;;;;4149536;28;20508;-72
2021/10/26 03:18:52;;;;;;;12.90;8.50;;;12.90;99.90;;;;;;4150227;28;20061;-72
2021/10/26 03:20:55;;;;;;;12.02;8.13;;;12.80;99.90;;;;;;4152550;28;20040;-72
2021/10/26 03:22:56;;;;;;;13.63;7.20;;;12.80;99.90;;;;;;4152615;28;20087;-72
2021/10/26 03:24:56;;;;;;;10.60;6.78;;;12.80;99.90;;;;;;4151371;28;20034;-72
2021/10/26 03:26:57;;;;;;;13.45;7.90;;;12.80;99.90;;;;;;4153470;28;20088;-72
2021/10/26 03:28:57;;;;;;;9.82;6.72;;;12.90;99.90;;;;;;4148938;28;20037;-72
2021/10/26 03:31:01;;;;;;;17.08;7.60;;;12.90;99.90;;;;;;4152566;28;20463;-72
2021/10/26 03:33:03;;;;;;;14.80;8.05;;;12.90;99.90;;;;;;4150058;28;20057;-72
2021/10/26 03:35:04;;;;;;;16.55;8.65;;;12.90;99.90;;;;;;4151530;28;20037;-71
2021/10/26 03:37:06;;;;;;;11.77;8.55;;;12.80;99.90;;;;;;4151737;28;20036;-72
2021/10/26 03:39:07;;;;;;;12.40;7.70;;;12.80;99.90;;;;;;4151490;28;20053;-72
2021/10/26 03:41:08;;;;;;;11.70;7.43;;;12.80;99.90;;;;;;4154770;28;20053;-72
2021/10/26 03:43:08;;;;;;;12.98;8.30;;;12.80;99.90;;;;;;4151797;28;20037;-72
2021/10/26 03:45:10;;;;;;;10.40;7.05;;;12.80;99.90;;;;;;4149132;28;20022;-72
2021/10/26 03:47:10;;;;;;;12.27;7.15;;;12.80;99.90;;;;;;4153076;28;20042;-72
2021/10/26 03:49:11;;;;;;;11.40;7.13;;;12.80;99.90;;;;;;4154398;28;20022;-72
2021/10/26 03:51:13;;;;;;;13.77;7.97;;;12.90;99.90;;;;;;4150601;28;20045;-72
2021/10/26 03:53:13;;;;;;;12.57;7.88;;;12.90;99.90;;;;;;4153531;28;20048;-72
2021/10/26 03:55:14;;;;;;;10.27;6.63;;;12.90;99.90;;;;;;4156881;28;20492;-72
2021/10/26 03:57:15;;;;;;;14.00;7.82;;;12.90;99.90;;;;;;4158537;28;20032;-72
2021/10/26 03:59:16;;;;;;;11.88;7.60;;;12.90;99.90;;;;;;4152477;28;20029;-72
2021/10/26 04:01:17;;;;;;;12.52;7.55;;;12.90;99.90;;;;;;4155276;28;20060;-72
2021/10/26 04:03:18;;;;;;;12.88;6.97;;;12.90;99.90;;;;;;4156410;28;20384;-72
2021/10/26 04:07:21;;;;;;;9.82;7.22;;;13.00;99.90;;;;;;4156230;28;20487;-72
2021/10/26 04:09:30;;;;;;;12.60;8.45;;;13.00;99.90;;;;;;4152057;28;20571;-72
2021/10/26 04:11:39;;;;;;;18.45;8.40;;;12.90;99.90;;;;;;4152705;28;21157;-72
2021/10/26 04:13:39;;;;;;;14.65;8.48;;;12.90;99.90;;;;;;4157244;28;20425;-72
2021/10/26 04:15:40;;;;;;;15.82;7.95;;;12.90;99.90;;;;;;4158265;28;20037;-72
2021/10/26 04:17:41;;;;;;;12.48;8.15;;;12.90;99.90;;;;;;4156268;28;20053;-72
2021/10/26 04:19:41;;;;;;;13.68;8.15;;;12.90;99.90;;;;;;4153207;28;20053;-72
2021/10/26 04:21:42;;;;;;;15.35;8.13;;;12.90;99.90;;;;;;4153404;28;20088;-72
2021/10/26 04:23:46;;;;;;;13.57;7.25;;;12.90;99.90;;;;;;4155803;28;20489;-72
2021/10/26 04:25:47;;;;;;;13.93;7.93;;;12.90;99.90;;;;;;4154984;28;20052;-72
2021/10/26 04:27:47;;;;;;;19.08;8.52;;;12.90;99.90;;;;;;4157530;28;20677;-72
2021/10/26 04:29:48;;;;;;;14.88;8.52;;;12.90;99.90;;;;;;4157375;28;20489;-72
2021/10/26 04:31:49;;;;;;;19.40;9.85;;;12.90;99.90;;;;;;4154949;28;20057;-72
2021/10/26 04:33:49;;;;;;;17.85;8.45;;;12.80;99.90;;;;;;4161036;28;20064;-72
2021/10/26 04:35:50;;;;;;;21.10;9.27;;;12.80;99.90;;;;;;4155758;28;20080;-72
2021/10/26 04:37:52;;;;;;;21.77;8.25;;;12.80;99.90;;;;;;4155238;28;20453;-72
2021/10/26 04:39:53;;;;;;;18.02;9.35;;;12.80;99.90;;;;;;4153109;28;20046;-72
2021/10/26 04:41:54;;;;;;;16.05;8.73;;;12.80;99.90;;;;;;4152804;28;20033;-72
2021/10/26 04:43:55;;;;;;;14.23;8.55;;;12.70;99.90;;;;;;4150004;28;20086;-72
2021/10/26 04:45:56;;;;;;;14.77;8.80;;;12.70;99.90;;;;;;4154150;28;20041;-72
2021/10/26 04:47:57;;;;;;;20.73;9.52;;;12.70;99.90;;;;;;4153864;28;20444;-72
2021/10/26 04:49:58;;;;;;;18.45;9.18;;;12.70;99.90;;;;;;4152812;28;20076;-73
2021/10/26 04:51:59;;;;;;;14.32;8.90;;;12.70;99.90;;;;;;4148611;28;20562;-74
2021/10/26 04:54:00;;;;;;;19.85;10.80;;;12.70;99.90;;;;;;4154250;28;20497;-73
2021/10/26 04:56:01;;;;;;;15.77;9.05;;;12.70;99.90;;;;;;4156182;28;20067;-72
2021/10/26 04:58:02;;;;;;;20.13;9.50;;;12.80;99.90;;;;;;4154210;28;20116;-72
2021/10/26 05:00:05;;;;;;;14.68;8.90;;;12.70;99.90;;;;;;4153274;28;20033;-72
2021/10/26 05:02:05;;;;;;;14.70;8.25;;;12.70;99.90;;;;;;4153424;28;20598;-72
2021/10/26 05:04:06;;;;;;;14.85;8.10;;;12.80;99.90;;;;;;4149914;28;20056;-72
2021/10/26 05:06:06;;;;;;;13.57;8.38;;;12.70;99.90;;;;;;4151198;28;20337;-72
2021/10/26 05:08:07;;;;;;;13.02;8.18;;;12.80;99.90;;;;;;4139006;28;20032;-72
2021/10/26 05:10:08;;;;;;;18.20;9.25;;;12.80;99.90;;;;;;4153028;28;20065;-72
2021/10/26 05:12:08;;;;;;;12.82;7.28;;;12.70;99.90;;;;;;4159024;28;20049;-72
2021/10/26 05:14:09;;;;;;;15.32;8.52;;;12.70;99.90;;;;;;4156818;28;20258;-72
2021/10/26 05:16:10;;;;;;;13.60;8.65;;;12.80;99.90;;;;;;4157094;28;20735;-72
2021/10/26 05:18:13;;;;;;;16.17;9.35;;;12.70;99.90;;;;;;4158275;28;20453;-72
2021/10/26 05:20:16;;;;;;;17.35;7.88;;;12.70;99.90;;;;;;4156741;28;20125;-72
2021/10/26 05:22:22;;;;;;;14.73;8.45;;;12.80;99.90;;;;;;4156361;28;20124;-72
2021/10/26 05:24:25;;;;;;;15.40;8.38;;;12.80;99.90;;;;;;4155372;28;21253;-72
2021/10/26 05:26:25;;;;;;;;;;;12.80;99.90;;;;;;4157825;28;20068;-72
2021/10/26 05:28:26;;;;;;;19.75;9.57;;;12.80;99.90;;;;;;4154845;28;19913;-72
2021/10/26 05:30:27;;;;;;;19.83;9.18;;;12.80;99.90;;;;;;4155810;28;20144;-69
2021/10/26 05:32:27;;;;;;;16.85;9.00;;;12.70;99.90;;;;;;4157988;28;20567;-69
2021/10/26 05:34:28;;;;;;;14.70;8.73;;;12.70;99.90;;;;;;4159907;28;20823;-70
2021/10/26 05:36:29;;;;;;;15.70;8.90;;;12.70;99.90;;;;;;4155244;28;20033;-69
2021/10/26 05:38:30;;;;;;;18.05;8.73;;;12.80;99.90;;;;;;4156641;28;20385;-69
2021/10/26 05:40:30;;;;;;;14.88;8.48;;;12.80;99.90;;;;;;4132841;28;20056;-69
2021/10/26 05:42:31;;;;;;;19.55;8.93;;;12.70;99.90;;;;;;4155948;28;20103;-69
2021/10/26 05:44:33;;;;;;;17.65;9.25;;;12.80;99.90;;;;;;4155250;28;20037;-69
2021/10/26 05:46:33;;;;;;;13.40;8.00;;;12.70;99.90;;;;;;4151220;28;20033;-69
2021/10/26 05:48:34;;;;;;;17.17;8.68;;;12.70;99.90;;;;;;4151670;28;20425;-69
2021/10/26 05:50:35;;;;;;;15.15;7.72;;;12.70;99.90;;;;;;4148704;28;20454;-69
2021/10/26 05:52:36;;;;;;;17.10;9.13;;;12.70;99.90;;;;;;4152260;28;20049;-69
2021/10/26 05:54:37;;;;;;;14.37;8.43;;;12.80;99.90;;;;;;4152790;28;20447;-69
2021/10/26 05:56:38;;;;;;;15.35;9.05;;;12.80;99.90;;;;;;4152058;28;20049;-69
2021/10/26 05:58:38;;;;;;;19.10;10.15;;;12.80;99.90;;;;;;4150826;28;20041;-69
2021/10/26 06:00:40;;;;;;;15.02;8.35;;;12.70;99.90;;;;;;4152593;28;20076;-69
2021/10/26 06:02:41;;;;;;;14.13;8.60;;;12.70;99.90;;;;;;4150728;28;20379;-69
2021/10/26 06:04:41;;;;;;;15.15;8.90;;;12.70;99.90;;;;;;4149322;28;20040;-71
2021/10/26 06:06:44;;;;;;;13.57;8.27;;;12.80;99.90;;;;;;4150397;28;20025;-71
2021/10/26 06:08:46;;;;;;;13.00;7.57;;;12.70;99.90;;;;;;4151538;28;20489;-71
2021/10/26 06:10:52;;;;;;;11.50;7.60;;;12.80;99.90;;;;;;4137952;28;20638;-71
2021/10/26 06:12:57;;;;;;;14.80;8.80;;;12.80;99.90;;;;;;4147009;28;20148;-71
2021/10/26 06:14:58;;;;;;;17.15;8.80;;;12.80;99.90;;;;;;4127753;28;20049;-71
2021/10/26 06:17:01;;;;;;;12.88;8.10;;;12.80;99.90;;;;;;4144799;28;20037;-72
2021/10/26 06:19:03;;;;;;;17.60;8.10;;;12.80;99.90;;;;;;4149845;28;20029;-72
2021/10/26 06:21:04;;;;;;;22.17;8.80;;;12.70;99.90;;;;;;4152922;28;20614;-71
2021/10/26 06:23:04;;;;;;;16.17;9.20;;;12.70;99.90;;;;;;4149731;28;20113;-72
2021/10/26 06:25:05;;;;;;;16.67;8.55;;;12.70;99.90;;;;;;4149115;28;20643;-72
2021/10/26 06:27:06;;;;;;;14.07;9.10;;;12.70;99.90;;;;;;4133979;28;20346;-72
2021/10/26 06:29:08;;;;;;;18.30;9.35;;;12.70;99.90;;;;;;4151257;28;20481;-72
2021/10/26 06:31:08;;;;;;;16.90;9.15;;;12.70;99.90;;;;;;4154439;28;20355;-72
2021/10/26 06:33:09;;;;;;;12.20;8.40;;;12.70;99.90;;;;;;4132774;28;21077;-72
2021/10/26 06:35:11;;;;;;;12.35;7.72;;;12.70;99.90;;;;;;4149085;28;20548;-71
2021/10/26 06:37:11;;;;;;;13.00;8.57;;;12.70;99.90;;;;;;4149156;28;20108;-72
2021/10/26 06:39:12;;;;;;;14.43;9.07;;;12.70;99.90;;;;;;4151525;28;20322;-72
2021/10/26 06:41:12;;;;;;;13.88;8.63;;;12.70;99.90;;;;;;4151401;28;20186;-72
2021/10/26 06:43:13;;;;;;;20.58;9.55;;;12.70;99.90;;;;;;4150176;28;20434;-72
2021/10/26 06:45:14;;;;;;;16.63;9.43;;;12.70;99.90;;;;;;4149554;28;20037;-72
2021/10/26 06:47:15;;;;;;;18.10;9.70;;;12.70;99.90;;;;;;4150164;28;20497;-71
2021/10/26 06:49:15;;;;;;;20.15;10.18;;;12.70;99.90;;;;;;4152827;28;20045;-72
2021/10/26 06:51:16;;;;;;;16.70;10.25;;;12.70;99.90;;;;;;4153666;28;20426;-72
2021/10/26 06:53:17;;;;;;;22.05;10.55;;;12.70;99.90;;;;;;4152631;28;20603;-72
2021/10/26 06:55:20;;;;;;;17.10;9.85;;;12.70;99.90;;;;;;4151298;28;20034;-72
2021/10/26 06:57:21;;;;;;;19.35;10.20;;;12.70;99.90;;;;;;4149688;28;20053;-72
2021/10/26 06:59:22;;;;;;;20.17;11.30;;;12.70;99.90;;;;;;4147942;28;20048;-72
2021/10/26 07:01:22;;;;;;;26.02;12.60;;;12.60;99.90;;;;;;4150545;28;20460;-72
2021/10/26 07:03:24;;;;;;;20.50;11.40;;;12.70;99.90;;;;;;4157299;28;20054;-72
2021/10/26 07:05:25;;;;;;;22.83;12.23;;;12.70;99.90;;;;;;4136543;28;20068;-72
2021/10/26 07:07:26;;;;;;;19.05;10.70;;;12.60;99.90;;;;;;4150645;28;20112;-72
2021/10/26 07:09:26;;;;;;;20.88;11.80;;;12.70;99.90;;;;;;4150442;28;20080;-72
2021/10/26 07:11:27;;;;;;;18.50;11.70;;;12.70;99.90;;;;;;4152127;28;20542;-71
2021/10/26 07:13:28;;;;;;;28.17;12.52;;;12.70;99.90;;;;;;4155695;28;20037;-72
2021/10/26 07:15:29;;;;;;;23.88;12.32;;;12.70;99.90;;;;;;4150561;28;20580;-72
2021/10/26 07:17:30;;;;;;;19.20;12.30;;;12.70;99.90;;;;;;4151285;28;20083;-72
2021/10/26 07:19:30;;;;;;;20.48;11.93;;;12.70;99.90;;;;;;4148970;28;20040;-72
2021/10/26 07:21:31;;;;;;;19.85;12.95;;;12.70;99.90;;;;;;4151299;28;20037;-71
2021/10/26 07:23:32;;;;;;;21.45;12.85;;;12.60;99.90;;;;;;4103149;28;20128;-72
2021/10/26 07:25:33;;;;;;;19.20;10.88;;;12.60;99.90;;;;;;4146935;28;20042;-72
2021/10/26 07:27:35;;;;;;;19.45;11.77;;;12.60;99.90;;;;;;4150405;28;20057;-72
2021/10/26 07:29:36;;;;;;;17.80;11.38;;;12.60;99.90;;;;;;4153305;28;20041;-72
2021/10/26 07:31:37;;;;;;;16.00;9.95;;;12.70;99.90;;;;;;4150562;28;20470;-71
2021/10/26 07:33:37;;;;;;;25.83;12.13;;;12.70;99.90;;;;;;4151358;28;20045;-72
2021/10/26 07:35:41;;;;;;;20.15;11.35;;;12.70;99.90;;;;;;4148456;28;20539;-72
2021/10/26 07:37:45;;;;;;;16.08;10.73;;;12.70;99.90;;;;;;4160614;28;20017;-72
2021/10/26 07:39:47;;;;;;;23.08;11.90;;;12.70;99.90;;;;;;4153867;28;20072;-72
2021/10/26 07:41:49;;;;;;;18.23;11.60;;;12.70;99.90;;;;;;4153309;28;20072;-72
2021/10/26 07:43:49;;;;;;;21.97;12.43;;;12.70;99.90;;;;;;4147321;28;20108;-72
2021/10/26 07:45:51;;;;;;;18.83;12.05;;;12.70;99.90;;;;;;4152640;28;20307;-72
2021/10/26 07:47:52;;;;;;;17.23;11.20;;;12.70;99.90;;;;;;4152935;28;20163;-72
2021/10/26 07:49:54;;;;;;;20.08;12.38;;;12.70;99.90;;;;;;4151154;28;20088;-72
2021/10/26 07:51:55;;;;;;;29.67;15.00;;;12.70;99.90;;;;;;4146165;28;20771;-72
2021/10/26 07:53:56;;;;;;;23.90;12.43;;;12.70;99.90;;;;;;4154916;28;20037;-72
2021/10/26 07:55:57;;;;;;;28.13;13.75;;;12.70;99.90;;;;;;4151349;28;20520;-72
2021/10/26 07:57:58;;;;;;;21.90;12.85;;;12.70;99.90;;;;;;4150112;28;20037;-72
2021/10/26 07:59:58;;;;;;;18.38;12.18;;;12.60;99.90;;;;;;4150323;28;20111;-72
2021/10/26 08:02:00;;;;;;;18.67;10.63;;;12.60;99.90;;;;;;4150388;28;20041;-72
2021/10/26 08:04:00;;;;;;;19.10;12.32;;;12.70;99.90;;;;;;4151381;28;20047;-72
2021/10/26 08:06:02;;;;;;;22.30;11.68;;;12.70;99.90;;;;;;4148838;28;20116;-72
2021/10/26 08:08:03;;;;;;;21.80;11.88;;;12.70;99.90;;;;;;4151150;28;20033;-72
2021/10/26 08:10:04;;;;;;;22.15;12.88;;;12.70;99.90;;;;;;4154690;28;20409;-72
2021/10/26 08:12:05;;;;;;;19.88;12.20;;;12.70;99.90;;;;;;4156620;28;20224;-72
2021/10/26 08:14:06;;;;;;;21.77;12.90;;;12.70;99.90;;;;;;4152336;28;20101;-72
2021/10/26 08:16:07;;;;;;;16.65;10.88;;;12.70;99.90;;;;;;4148447;28;20538;-72
2021/10/26 08:18:07;;;;;;;21.98;12.30;;;12.60;99.90;;;;;;4150896;28;20095;-72
2021/10/26 08:20:09;;;;;;;23.30;12.65;;;12.70;99.90;;;;;;4149880;28;20354;-72
2021/10/26 08:22:16;;;;;;;21.02;11.82;;;12.60;99.90;;;;;;4156861;28;20057;-72
2021/10/26 08:24:22;;;;;;;18.30;11.57;;;12.70;99.90;;;;;;4149802;28;20034;-71
2021/10/26 08:26:32;;;;;;;21.15;11.63;;;12.60;99.90;;;;;;4149765;28;20230;-72
2021/10/26 08:28:34;;;;;;;18.27;10.25;;;12.60;99.90;;;;;;4157240;28;20037;-72
2021/10/26 08:30:42;;;;;;;19.00;11.23;;;12.70;99.90;;;;;;4155816;28;20046;-72
2021/10/26 08:34:47;;;;;;;20.02;10.25;;;12.60;99.90;;;;;;4152279;28;20434;-72
2021/10/26 08:36:50;;;;;;;13.93;9.57;;;12.70;99.90;;;;;;4150756;28;20029;-72
2021/10/26 08:38:50;;;;;;;20.45;11.32;;;12.70;99.90;;;;;;4157107;28;20025;-72
2021/10/26 08:40:52;;;;;;;17.30;10.68;;;12.70;99.90;;;;;;4152378;28;20117;-72
2021/10/26 08:42:54;;;;;;;19.77;11.77;;;12.70;99.90;;;;;;4154272;28;20041;-72
2021/10/26 08:44:55;;;;;;;18.65;11.73;;;12.70;99.90;;;;;;4156464;28;20501;-72
2021/10/26 08:46:57;;;;;;;17.92;11.52;;;12.60;99.90;;;;;;4155625;28;20051;-72
2021/10/26 08:48:58;;;;;;;22.85;13.35;;;12.70;99.90;;;;;;4156569;28;20864;-71
2021/10/26 08:51:01;;;;;;;17.20;10.88;;;12.60;99.90;;;;;;4160193;28;20057;-72
2021/10/26 08:53:04;;;;;;;17.42;10.95;;;12.60;99.90;;;;;;4157056;28;20401;-72
2021/10/26 08:55:07;;;;;;;21.38;11.05;;;12.60;99.90;;;;;;4155358;28;20037;-72
2021/10/26 08:57:08;;;;;;;21.65;11.43;;;12.60;99.90;;;;;;4134461;28;20060;-72
2021/10/26 08:59:09;;;;;;;18.20;10.00;;;12.50;99.90;;;;;;4151530;28;20037;-72
2021/10/26 09:01:09;;;;;;;21.98;10.65;;;12.50;99.90;;;;;;4153166;28;20033;-72
2021/10/26 09:03:18;;;;;;;26.52;11.40;;;12.40;99.90;;;;;;4156517;28;20405;-72
2021/10/26 09:05:22;;;;;;;19.27;9.88;;;12.50;99.90;;;;;;4153520;28;20041;-72
2021/10/26 09:07:23;;;;;;;16.85;9.98;;;12.60;99.90;;;;;;4149520;28;20054;-72
2021/10/26 09:09:25;;;;;;;17.15;9.32;;;12.60;99.90;;;;;;4152372;28;20045;-72
2021/10/26 09:11:38;;;;;;;15.38;8.50;;;12.70;99.90;;;;;;4154239;28;20048;-72
2021/10/26 09:18:26;;;;;;;15.80;9.10;;;12.80;99.90;;;;;;4151946;28;20148;-72
2021/10/26 09:20:30;;;;;;;20.27;10.90;;;12.70;99.90;;;;;;4153243;28;20048;-72
2021/10/26 09:22:31;;;;;;;18.88;10.77;;;12.80;99.90;;;;;;4151603;28;20566;-72
2021/10/26 09:24:34;;;;;;;17.15;10.00;;;12.80;99.90;;;;;;4150563;28;20049;-72
2021/10/26 09:26:56;;;;;;;15.52;10.05;;;12.80;99.90;;;;;;4150735;28;20045;-72
2021/10/26 09:28:58;;;;;;;19.00;8.95;;;12.80;99.90;;;;;;4153170;28;20485;-72
2021/10/26 09:31:06;;;;;;;19.33;11.77;;;12.90;99.90;;;;;;4153161;28;20197;-72
2021/10/26 09:33:08;;;;;;;21.60;11.82;;;12.90;99.90;;;;;;4153953;28;20040;-72
2021/10/26 09:35:12;;;;;;;15.87;10.07;;;12.90;99.90;;;;;;4151183;28;20761;-72
2021/10/26 09:37:15;;;;;;;20.33;11.07;;;13.00;99.90;;;;;;4150108;28;20273;-72
2021/10/26 09:39:18;;;;;;;18.17;10.77;;;13.00;99.90;;;;;;4151831;28;20048;-72
2021/10/26 09:41:18;;;;;;;22.48;10.07;;;13.00;99.90;;;;;;4161023;28;20463;-74
2021/10/26 09:43:27;;;;;;;20.25;9.93;;;13.10;99.90;;;;;;4153989;28;20091;-72
2021/10/26 09:45:29;;;;;;;16.92;9.98;;;13.10;99.90;;;;;;4153722;28;20417;-72
2021/10/26 09:47:34;;;;;;;;;;;13.10;99.90;;;;;;4152483;28;20029;-72
2021/10/26 09:49:40;;;;;;;14.90;8.45;;;13.10;99.90;;;;;;4152585;28;20385;-72
2021/10/26 09:51:40;;;;;;;16.95;8.57;;;13.10;99.90;;;;;;4151902;28;20374;-72
2021/10/26 09:53:41;;;;;;;11.60;7.22;;;13.20;99.90;;;;;;4155342;28;20037;-72
2021/10/26 09:55:47;;;;;;;13.45;7.93;;;13.20;99.90;;;;;;4150742;28;20026;-72
2021/10/26 09:57:56;;;;;;;11.98;6.95;;;13.20;99.90;;;;;;4149170;28;20047;-72
2021/10/26 09:59:57;;;;;;;15.75;7.78;;;13.30;99.90;;;;;;4152103;28;20048;-72
2021/10/26 10:01:58;;;;;;;13.23;6.80;;;13.30;99.90;;;;;;4151180;28;20120;-72
2021/10/26 10:04:06;;;;;;;17.58;7.32;;;13.30;99.90;;;;;;4151358;28;20513;-72
2021/10/26 10:06:09;;;;;;;14.10;6.85;;;13.30;99.90;;;;;;4153382;28;20852;-72
2021/10/26 10:08:23;;;;;;;12.30;6.32;;;13.30;99.90;;;;;;4149504;28;20045;-72
2021/10/26 10:10:36;;;;;;;12.82;6.13;;;13.30;99.90;;;;;;4152940;28;20354;-72
2021/10/26 10:12:42;;;;;;;;;;;13.40;99.90;;;;;;4152986;28;20056;-72
2021/10/26 10:14:47;;;;;;;15.55;6.18;;;13.40;99.90;;;;;;4149647;28;19912;-72
2021/10/26 10:16:50;;;;;;;13.75;6.63;;;13.50;99.90;;;;;;4151793;28;20037;-72
2021/10/26 10:18:52;;;;;;;10.95;5.90;;;13.50;99.90;;;;;;4152010;28;20033;-72
2021/10/26 10:20:55;;;;;;;12.77;5.82;;;13.50;99.90;;;;;;4157092;28;20025;-72
2021/10/26 10:22:58;;;;;;;11.32;5.60;;;13.50;99.90;;;;;;4151535;28;20030;-72
2021/10/26 10:25:00;;;;;;;12.38;5.55;;;13.60;99.90;;;;;;4152728;28;20029;-72
2021/10/26 10:27:01;;;;;;;;;;;13.60;99.90;;;;;;4152744;28;20040;-72
2021/10/26 10:29:02;;;;;;;16.27;6.95;;;13.70;99.90;;;;;;4150022;28;19974;-72
2021/10/26 10:31:03;;;;;;;12.82;6.45;;;13.70;99.90;;;;;;4152876;28;20443;-72
2021/10/26 10:33:04;;;;;;;14.50;6.88;;;13.70;99.90;;;;;;4155444;28;20099;-72
2021/10/26 10:35:08;;;;;;;8.18;5.55;;;13.70;99.90;;;;;;4155216;28;20034;-72